sensor_id;sensor_type;location;lat;lon;timestamp;P1;durP1;ratioP1;P2;durP2;ratioP2
27145;SDS011;17980;51.744;7.190;2023-04-19T00:01:49;11.63;;;8.90;;
27145;SDS011;17980;51.744;7.190;2023-04-19T00:04:17;10.00;;;8.70;;
27145;SDS011;17980;51.744;7.190;2023-04-19T00:06:54;9.77;;;8.77;;
27145;SDS011;17980;51.744;7.190;2023-04-19T00:09:23;9.50;;;8.60;;
27145;SDS011;17980;51.744;7.190;2023-04-19T00:12:00;10.77;;;8.53;;
27145;SDS011;17980;51.744;7.190;2023-04-19T00:14:27;10.37;;;8.27;;
27145;SDS011;17980;51.744;7.190;2023-04-19T00:16:54;11.07;;;8.50;;
27145;SDS011;17980;51.744;7.190;2023-04-19T00:19:31;8.97;;;8.07;;
27145;SDS011;17980;51.744;7.190;2023-04-19T00:21:59;10.97;;;8.73;;
27145;SDS011;17980;51.744;7.190;2023-04-19T00:24:36;9.53;;;8.23;;
27145;SDS011;17980;51.744;7.190;2023-04-19T00:27:03;10.30;;;8.67;;
27145;SDS011;17980;51.744;7.190;2023-04-19T00:29:30;10.17;;;7.97;;
27145;SDS011;17980;51.744;7.190;2023-04-19T00:32:07;10.07;;;7.60;;
27145;SDS011;17980;51.744;7.190;2023-04-19T00:34:34;9.13;;;8.23;;
27145;SDS011;17980;51.744;7.190;2023-04-19T00:37:02;9.77;;;8.27;;
27145;SDS011;17980;51.744;7.190;2023-04-19T00:39:30;11.13;;;8.73;;
27145;SDS011;17980;51.744;7.190;2023-04-19T00:42:06;12.77;;;8.20;;
27145;SDS011;17980;51.744;7.190;2023-04-19T00:44:34;8.87;;;7.97;;
27145;SDS011;17980;51.744;7.190;2023-04-19T00:47:01;9.43;;;7.77;;
27145;SDS011;17980;51.744;7.190;2023-04-19T00:49:38;8.77;;;7.87;;
27145;SDS011;17980;51.744;7.190;2023-04-19T00:52:05;8.07;;;7.27;;
27145;SDS011;17980;51.744;7.190;2023-04-19T00:54:43;8.90;;;8.10;;
27145;SDS011;17980;51.744;7.190;2023-04-19T00:57:11;9.50;;;7.47;;
27145;SDS011;17980;51.744;7.190;2023-04-19T00:59:48;13.17;;;8.07;;
27145;SDS011;17980;51.744;7.190;2023-04-19T01:02:16;10.47;;;7.60;;
27145;SDS011;17980;51.744;7.190;2023-04-19T01:04:53;8.13;;;7.00;;
27145;SDS011;17980;51.744;7.190;2023-04-19T01:07:20;8.43;;;7.43;;
27145;SDS011;17980;51.744;7.190;2023-04-19T01:09:57;7.97;;;6.23;;
27145;SDS011;17980;51.744;7.190;2023-04-19T01:12:24;9.90;;;7.23;;
27145;SDS011;17980;51.744;7.190;2023-04-19T01:14:51;8.50;;;6.97;;
27145;SDS011;17980;51.744;7.190;2023-04-19T01:17:34;8.07;;;6.73;;
27145;SDS011;17980;51.744;7.190;2023-04-19T01:20:03;8.40;;;7.07;;
27145;SDS011;17980;51.744;7.190;2023-04-19T01:22:41;7.77;;;6.77;;
27145;SDS011;17980;51.744;7.190;2023-04-19T01:25:08;6.77;;;6.07;;
27145;SDS011;17980;51.744;7.190;2023-04-19T01:27:45;8.77;;;6.20;;
27145;SDS011;17980;51.744;7.190;2023-04-19T01:30:13;7.93;;;6.37;;
27145;SDS011;17980;51.744;7.190;2023-04-19T01:32:50;8.03;;;7.23;;
27145;SDS011;17980;51.744;7.190;2023-04-19T01:35:17;9.03;;;6.23;;
27145;SDS011;17980;51.744;7.190;2023-04-19T01:37:54;8.00;;;6.37;;
27145;SDS011;17980;51.744;7.190;2023-04-19T01:42:58;9.70;;;5.87;;
27145;SDS011;17980;51.744;7.190;2023-04-19T01:45:25;8.73;;;5.60;;
27145;SDS011;17980;51.744;7.190;2023-04-19T01:47:53;6.77;;;5.40;;
27145;SDS011;17980;51.744;7.190;2023-04-19T01:50:30;6.43;;;5.17;;
27145;SDS011;17980;51.744;7.190;2023-04-19T01:52:57;9.70;;;5.30;;
27145;SDS011;17980;51.744;7.190;2023-04-19T01:55:34;6.27;;;5.13;;
27145;SDS011;17980;51.744;7.190;2023-04-19T01:58:02;5.73;;;5.07;;
27145;SDS011;17980;51.744;7.190;2023-04-19T02:00:41;7.20;;;4.83;;
27145;SDS011;17980;51.744;7.190;2023-04-19T02:03:08;6.23;;;5.37;;
27145;SDS011;17980;51.744;7.190;2023-04-19T02:05:45;5.37;;;4.60;;
27145;SDS011;17980;51.744;7.190;2023-04-19T02:08:12;4.67;;;4.27;;
27145;SDS011;17980;51.744;7.190;2023-04-19T02:10:49;5.23;;;4.53;;
27145;SDS011;17980;51.744;7.190;2023-04-19T02:13:16;5.93;;;4.83;;
27145;SDS011;17980;51.744;7.190;2023-04-19T02:15:44;5.20;;;4.57;;
27145;SDS011;17980;51.744;7.190;2023-04-19T02:20:49;5.50;;;4.37;;
27145;SDS011;17980;51.744;7.190;2023-04-19T02:23:17;5.17;;;4.07;;
27145;SDS011;17980;51.744;7.190;2023-04-19T02:25:45;7.13;;;4.27;;
27145;SDS011;17980;51.744;7.190;2023-04-19T02:28:12;4.53;;;3.77;;
27145;SDS011;17980;51.744;7.190;2023-04-19T02:30:39;4.90;;;4.40;;
27145;SDS011;17980;51.744;7.190;2023-04-19T02:33:16;7.73;;;4.53;;
27145;SDS011;17980;51.744;7.190;2023-04-19T02:35:44;6.30;;;4.97;;
27145;SDS011;17980;51.744;7.190;2023-04-19T02:38:11;6.23;;;4.20;;
27145;SDS011;17980;51.744;7.190;2023-04-19T02:40:38;4.70;;;4.30;;
27145;SDS011;17980;51.744;7.190;2023-04-19T02:43:21;5.77;;;4.27;;
27145;SDS011;17980;51.744;7.190;2023-04-19T02:45:49;5.77;;;4.33;;
27145;SDS011;17980;51.744;7.190;2023-04-19T02:48:26;5.13;;;4.57;;
27145;SDS011;17980;51.744;7.190;2023-04-19T02:50:53;5.83;;;3.43;;
27145;SDS011;17980;51.744;7.190;2023-04-19T02:53:30;4.93;;;4.30;;
27145;SDS011;17980;51.744;7.190;2023-04-19T02:55:58;4.37;;;3.53;;
27145;SDS011;17980;51.744;7.190;2023-04-19T02:58:26;5.33;;;4.00;;
27145;SDS011;17980;51.744;7.190;2023-04-19T03:01:03;4.97;;;4.43;;
27145;SDS011;17980;51.744;7.190;2023-04-19T03:03:31;7.47;;;3.53;;
27145;SDS011;17980;51.744;7.190;2023-04-19T03:05:58;7.07;;;3.90;;
27145;SDS011;17980;51.744;7.190;2023-04-19T03:08:35;4.57;;;3.97;;
27145;SDS011;17980;51.744;7.190;2023-04-19T03:11:02;5.90;;;4.00;;
27145;SDS011;17980;51.744;7.190;2023-04-19T03:13:42;4.70;;;3.87;;
27145;SDS011;17980;51.744;7.190;2023-04-19T03:16:10;5.03;;;3.87;;
27145;SDS011;17980;51.744;7.190;2023-04-19T03:18:37;5.80;;;3.60;;
27145;SDS011;17980;51.744;7.190;2023-04-19T03:21:17;9.63;;;4.63;;
27145;SDS011;17980;51.744;7.190;2023-04-19T03:23:45;4.33;;;3.50;;
27145;SDS011;17980;51.744;7.190;2023-04-19T03:26:12;4.10;;;3.70;;
27145;SDS011;17980;51.744;7.190;2023-04-19T03:28:39;5.93;;;3.77;;
27145;SDS011;17980;51.744;7.190;2023-04-19T03:31:16;4.30;;;3.90;;
27145;SDS011;17980;51.744;7.190;2023-04-19T03:33:43;3.77;;;3.40;;
27145;SDS011;17980;51.744;7.190;2023-04-19T03:36:20;7.13;;;4.40;;
27145;SDS011;17980;51.744;7.190;2023-04-19T03:38:47;5.13;;;4.00;;
27145;SDS011;17980;51.744;7.190;2023-04-19T03:41:25;3.67;;;3.37;;
27145;SDS011;17980;51.744;7.190;2023-04-19T03:43:52;4.43;;;3.73;;
27145;SDS011;17980;51.744;7.190;2023-04-19T03:46:20;5.17;;;3.73;;
27145;SDS011;17980;51.744;7.190;2023-04-19T03:48:47;5.73;;;4.00;;
27145;SDS011;17980;51.744;7.190;2023-04-19T03:51:24;5.20;;;4.53;;
27145;SDS011;17980;51.744;7.190;2023-04-19T03:53:52;5.97;;;4.43;;
27145;SDS011;17980;51.744;7.190;2023-04-19T03:56:19;4.30;;;3.90;;
27145;SDS011;17980;51.744;7.190;2023-04-19T03:58:47;5.43;;;4.40;;
27145;SDS011;17980;51.744;7.190;2023-04-19T04:01:26;6.63;;;4.40;;
27145;SDS011;17980;51.744;7.190;2023-04-19T04:03:54;5.13;;;4.33;;
27145;SDS011;17980;51.744;7.190;2023-04-19T04:06:21;6.00;;;4.23;;
27145;SDS011;17980;51.744;7.190;2023-04-19T04:08:48;6.20;;;4.27;;
27145;SDS011;17980;51.744;7.190;2023-04-19T04:11:31;4.30;;;3.90;;
27145;SDS011;17980;51.744;7.190;2023-04-19T04:13:58;7.00;;;4.00;;
27145;SDS011;17980;51.744;7.190;2023-04-19T04:16:26;5.80;;;4.57;;
27145;SDS011;17980;51.744;7.190;2023-04-19T04:19:03;4.63;;;3.87;;
27145;SDS011;17980;51.744;7.190;2023-04-19T04:21:30;4.33;;;3.57;;
27145;SDS011;17980;51.744;7.190;2023-04-19T04:24:07;5.77;;;4.37;;
27145;SDS011;17980;51.744;7.190;2023-04-19T04:26:35;5.83;;;3.97;;
27145;SDS011;17980;51.744;7.190;2023-04-19T04:29:04;6.13;;;4.37;;
27145;SDS011;17980;51.744;7.190;2023-04-19T04:31:40;4.97;;;4.30;;
27145;SDS011;17980;51.744;7.190;2023-04-19T04:34:08;5.23;;;3.73;;
27145;SDS011;17980;51.744;7.190;2023-04-19T04:36:35;6.67;;;3.80;;
27145;SDS011;17980;51.744;7.190;2023-04-19T04:39:03;5.47;;;3.60;;
27145;SDS011;17980;51.744;7.190;2023-04-19T04:41:40;6.13;;;4.00;;
27145;SDS011;17980;51.744;7.190;2023-04-19T04:44:07;3.90;;;3.17;;
27145;SDS011;17980;51.744;7.190;2023-04-19T04:46:45;4.07;;;3.63;;
27145;SDS011;17980;51.744;7.190;2023-04-19T04:49:12;6.57;;;3.73;;
27145;SDS011;17980;51.744;7.190;2023-04-19T04:51:49;5.90;;;4.17;;
27145;SDS011;17980;51.744;7.190;2023-04-19T04:54:16;5.70;;;3.90;;
27145;SDS011;17980;51.744;7.190;2023-04-19T04:56:43;6.30;;;3.67;;
27145;SDS011;17980;51.744;7.190;2023-04-19T04:59:11;4.03;;;3.17;;
27145;SDS011;17980;51.744;7.190;2023-04-19T05:01:54;5.70;;;3.40;;
27145;SDS011;17980;51.744;7.190;2023-04-19T05:04:21;4.50;;;3.90;;
27145;SDS011;17980;51.744;7.190;2023-04-19T05:06:48;5.07;;;3.13;;
27145;SDS011;17980;51.744;7.190;2023-04-19T05:09:15;3.40;;;3.10;;
27145;SDS011;17980;51.744;7.190;2023-04-19T05:11:53;4.63;;;3.00;;
27145;SDS011;17980;51.744;7.190;2023-04-19T05:14:21;7.97;;;3.03;;
27145;SDS011;17980;51.744;7.190;2023-04-19T05:16:48;4.93;;;2.90;;
27145;SDS011;17980;51.744;7.190;2023-04-19T05:19:15;4.37;;;3.40;;
27145;SDS011;17980;51.744;7.190;2023-04-19T05:21:52;4.00;;;2.83;;
27145;SDS011;17980;51.744;7.190;2023-04-19T05:24:20;5.47;;;3.00;;
27145;SDS011;17980;51.744;7.190;2023-04-19T05:26:47;4.27;;;2.43;;
27145;SDS011;17980;51.744;7.190;2023-04-19T05:29:15;3.93;;;2.23;;
27145;SDS011;17980;51.744;7.190;2023-04-19T05:31:52;7.40;;;2.60;;
27145;SDS011;17980;51.744;7.190;2023-04-19T05:34:20;3.97;;;2.70;;
27145;SDS011;17980;51.744;7.190;2023-04-19T05:36:47;4.70;;;2.83;;
27145;SDS011;17980;51.744;7.190;2023-04-19T05:39:14;3.10;;;2.07;;
27145;SDS011;17980;51.744;7.190;2023-04-19T05:41:51;4.40;;;2.23;;
27145;SDS011;17980;51.744;7.190;2023-04-19T05:44:18;3.70;;;1.90;;
27145;SDS011;17980;51.744;7.190;2023-04-19T05:46:46;4.33;;;2.53;;
27145;SDS011;17980;51.744;7.190;2023-04-19T05:49:24;3.50;;;2.30;;
27145;SDS011;17980;51.744;7.190;2023-04-19T05:51:51;3.77;;;2.37;;
27145;SDS011;17980;51.744;7.190;2023-04-19T05:54:28;3.47;;;2.00;;
27145;SDS011;17980;51.744;7.190;2023-04-19T05:56:57;3.97;;;2.97;;
27145;SDS011;17980;51.744;7.190;2023-04-19T05:59:24;4.17;;;1.70;;
27145;SDS011;17980;51.744;7.190;2023-04-19T06:02:01;4.00;;;2.03;;
27145;SDS011;17980;51.744;7.190;2023-04-19T06:04:29;5.13;;;1.93;;
27145;SDS011;17980;51.744;7.190;2023-04-19T06:06:57;4.80;;;2.30;;
27145;SDS011;17980;51.744;7.190;2023-04-19T06:09:37;3.60;;;2.00;;
27145;SDS011;17980;51.744;7.190;2023-04-19T06:12:04;3.03;;;1.73;;
27145;SDS011;17980;51.744;7.190;2023-04-19T06:14:47;4.67;;;1.77;;
27145;SDS011;17980;51.744;7.190;2023-04-19T06:17:14;3.27;;;1.57;;
27145;SDS011;17980;51.744;7.190;2023-04-19T06:19:51;2.30;;;1.67;;
27145;SDS011;17980;51.744;7.190;2023-04-19T06:22:19;5.60;;;1.80;;
27145;SDS011;17980;51.744;7.190;2023-04-19T06:24:56;3.27;;;1.83;;
27145;SDS011;17980;51.744;7.190;2023-04-19T06:27:24;2.90;;;1.90;;
27145;SDS011;17980;51.744;7.190;2023-04-19T06:30:00;3.10;;;2.00;;
27145;SDS011;17980;51.744;7.190;2023-04-19T06:32:28;1.50;;;1.10;;
27145;SDS011;17980;51.744;7.190;2023-04-19T06:35:06;4.63;;;1.73;;
27145;SDS011;17980;51.744;7.190;2023-04-19T06:37:34;3.13;;;1.93;;
27145;SDS011;17980;51.744;7.190;2023-04-19T06:40:11;5.93;;;1.40;;
27145;SDS011;17980;51.744;7.190;2023-04-19T06:42:38;3.87;;;1.53;;
27145;SDS011;17980;51.744;7.190;2023-04-19T06:45:15;5.57;;;1.50;;
27145;SDS011;17980;51.744;7.190;2023-04-19T06:47:43;5.17;;;1.37;;
27145;SDS011;17980;51.744;7.190;2023-04-19T06:50:10;3.77;;;1.73;;
27145;SDS011;17980;51.744;7.190;2023-04-19T06:52:47;3.80;;;1.73;;
27145;SDS011;17980;51.744;7.190;2023-04-19T06:55:14;3.50;;;1.87;;
27145;SDS011;17980;51.744;7.190;2023-04-19T06:57:42;1.27;;;1.07;;
27145;SDS011;17980;51.744;7.190;2023-04-19T07:00:10;1.80;;;1.13;;
27145;SDS011;17980;51.744;7.190;2023-04-19T07:02:50;3.40;;;1.30;;
27145;SDS011;17980;51.744;7.190;2023-04-19T07:05:18;3.40;;;1.70;;
27145;SDS011;17980;51.744;7.190;2023-04-19T07:07:45;3.80;;;1.57;;
27145;SDS011;17980;51.744;7.190;2023-04-19T07:10:12;4.07;;;1.67;;
27145;SDS011;17980;51.744;7.190;2023-04-19T07:12:50;1.67;;;1.30;;
27145;SDS011;17980;51.744;7.190;2023-04-19T07:15:17;2.40;;;1.27;;
27145;SDS011;17980;51.744;7.190;2023-04-19T07:17:44;2.90;;;1.43;;
27145;SDS011;17980;51.744;7.190;2023-04-19T07:20:13;2.87;;;1.17;;
27145;SDS011;17980;51.744;7.190;2023-04-19T07:22:50;2.03;;;1.20;;
27145;SDS011;17980;51.744;7.190;2023-04-19T07:25:18;2.40;;;1.30;;
27145;SDS011;17980;51.744;7.190;2023-04-19T07:27:46;5.37;;;1.57;;
27145;SDS011;17980;51.744;7.190;2023-04-19T07:30:14;1.97;;;1.30;;
27145;SDS011;17980;51.744;7.190;2023-04-19T07:32:51;1.73;;;0.97;;
27145;SDS011;17980;51.744;7.190;2023-04-19T07:35:18;2.23;;;1.03;;
27145;SDS011;17980;51.744;7.190;2023-04-19T07:37:46;6.40;;;1.30;;
27145;SDS011;17980;51.744;7.190;2023-04-19T07:40:22;3.70;;;1.20;;
27145;SDS011;17980;51.744;7.190;2023-04-19T07:42:50;1.53;;;1.20;;
27145;SDS011;17980;51.744;7.190;2023-04-19T07:45:29;3.43;;;1.33;;
27145;SDS011;17980;51.744;7.190;2023-04-19T07:47:56;1.63;;;0.87;;
27145;SDS011;17980;51.744;7.190;2023-04-19T07:50:24;2.03;;;1.10;;
27145;SDS011;17980;51.744;7.190;2023-04-19T07:53:01;3.27;;;1.10;;
27145;SDS011;17980;51.744;7.190;2023-04-19T07:55:29;2.77;;;1.10;;
27145;SDS011;17980;51.744;7.190;2023-04-19T07:57:56;4.07;;;0.90;;
27145;SDS011;17980;51.744;7.190;2023-04-19T08:00:24;7.13;;;1.07;;
27145;SDS011;17980;51.744;7.190;2023-04-19T08:03:01;4.30;;;1.47;;
27145;SDS011;17980;51.744;7.190;2023-04-19T08:05:29;0.90;;;0.73;;
27145;SDS011;17980;51.744;7.190;2023-04-19T08:07:56;1.53;;;0.80;;
27145;SDS011;17980;51.744;7.190;2023-04-19T08:10:23;1.23;;;1.10;;
27145;SDS011;17980;51.744;7.190;2023-04-19T08:13:00;5.90;;;0.83;;
27145;SDS011;17980;51.744;7.190;2023-04-19T08:15:28;0.70;;;0.70;;
27145;SDS011;17980;51.744;7.190;2023-04-19T08:18:05;2.33;;;0.80;;
27145;SDS011;17980;51.744;7.190;2023-04-19T08:20:32;1.20;;;0.73;;
27145;SDS011;17980;51.744;7.190;2023-04-19T08:23:00;3.40;;;0.90;;
27145;SDS011;17980;51.744;7.190;2023-04-19T08:25:27;4.63;;;1.37;;
27145;SDS011;17980;51.744;7.190;2023-04-19T08:27:54;2.00;;;0.80;;
27145;SDS011;17980;51.744;7.190;2023-04-19T08:30:23;0.90;;;0.90;;
27145;SDS011;17980;51.744;7.190;2023-04-19T08:33:00;1.13;;;0.70;;
27145;SDS011;17980;51.744;7.190;2023-04-19T08:35:27;2.67;;;0.83;;
27145;SDS011;17980;51.744;7.190;2023-04-19T08:37:54;0.80;;;0.70;;
27145;SDS011;17980;51.744;7.190;2023-04-19T08:40:31;1.67;;;0.70;;
27145;SDS011;17980;51.744;7.190;2023-04-19T08:42:59;1.10;;;0.77;;
27145;SDS011;17980;51.744;7.190;2023-04-19T08:45:40;2.33;;;1.00;;
27145;SDS011;17980;51.744;7.190;2023-04-19T08:48:08;1.87;;;0.80;;
27145;SDS011;17980;51.744;7.190;2023-04-19T08:50:36;1.90;;;0.90;;
27145;SDS011;17980;51.744;7.190;2023-04-19T08:53:14;1.70;;;0.90;;
27145;SDS011;17980;51.744;7.190;2023-04-19T08:55:42;0.70;;;0.70;;
27145;SDS011;17980;51.744;7.190;2023-04-19T08:58:09;2.50;;;0.93;;
27145;SDS011;17980;51.744;7.190;2023-04-19T09:00:46;3.00;;;1.07;;
27145;SDS011;17980;51.744;7.190;2023-04-19T09:03:13;1.30;;;0.70;;
27145;SDS011;17980;51.744;7.190;2023-04-19T09:05:50;2.77;;;0.80;;
27145;SDS011;17980;51.744;7.190;2023-04-19T09:08:21;2.10;;;0.70;;
27145;SDS011;17980;51.744;7.190;2023-04-19T09:10:59;1.03;;;0.93;;
27145;SDS011;17980;51.744;7.190;2023-04-19T09:13:27;2.00;;;0.90;;
27145;SDS011;17980;51.744;7.190;2023-04-19T09:16:05;1.87;;;1.03;;
27145;SDS011;17980;51.744;7.190;2023-04-19T09:18:34;2.63;;;0.90;;
27145;SDS011;17980;51.744;7.190;2023-04-19T09:21:28;2.83;;;0.90;;
27145;SDS011;17980;51.744;7.190;2023-04-19T09:23:56;1.97;;;0.90;;
27145;SDS011;17980;51.744;7.190;2023-04-19T09:26:33;0.90;;;0.80;;
27145;SDS011;17980;51.744;7.190;2023-04-19T09:29:04;2.40;;;1.10;;
27145;SDS011;17980;51.744;7.190;2023-04-19T09:31:42;1.00;;;0.90;;
27145;SDS011;17980;51.744;7.190;2023-04-19T09:34:14;1.87;;;0.90;;
27145;SDS011;17980;51.744;7.190;2023-04-19T09:36:42;3.90;;;0.90;;
27145;SDS011;17980;51.744;7.190;2023-04-19T09:39:30;1.43;;;0.80;;
27145;SDS011;17980;51.744;7.190;2023-04-19T09:42:06;4.23;;;1.30;;
27145;SDS011;17980;51.744;7.190;2023-04-19T09:44:37;1.57;;;1.00;;
27145;SDS011;17980;51.744;7.190;2023-04-19T09:47:10;1.00;;;0.90;;
27145;SDS011;17980;51.744;7.190;2023-04-19T09:50:02;3.17;;;0.90;;
27145;SDS011;17980;51.744;7.190;2023-04-19T09:52:42;4.50;;;1.10;;
27145;SDS011;17980;51.744;7.190;2023-04-19T09:55:11;4.03;;;1.20;;
27145;SDS011;17980;51.744;7.190;2023-04-19T09:57:39;2.77;;;1.20;;
27145;SDS011;17980;51.744;7.190;2023-04-19T10:00:07;3.37;;;0.90;;
27145;SDS011;17980;51.744;7.190;2023-04-19T10:02:45;2.10;;;1.10;;
27145;SDS011;17980;51.744;7.190;2023-04-19T10:05:16;2.63;;;1.23;;
27145;SDS011;17980;51.744;7.190;2023-04-19T10:07:44;2.83;;;0.90;;
27145;SDS011;17980;51.744;7.190;2023-04-19T10:10:12;2.83;;;1.67;;
27145;SDS011;17980;51.744;7.190;2023-04-19T10:12:51;4.33;;;1.57;;
27145;SDS011;17980;51.744;7.190;2023-04-19T10:15:20;2.10;;;1.10;;
27145;SDS011;17980;51.744;7.190;2023-04-19T10:17:57;1.23;;;1.00;;
27145;SDS011;17980;51.744;7.190;2023-04-19T10:20:25;1.60;;;1.20;;
27145;SDS011;17980;51.744;7.190;2023-04-19T10:23:06;2.93;;;1.20;;
27145;SDS011;17980;51.744;7.190;2023-04-19T10:25:35;2.93;;;1.03;;
27145;SDS011;17980;51.744;7.190;2023-04-19T10:28:14;1.70;;;1.00;;
27145;SDS011;17980;51.744;7.190;2023-04-19T10:30:52;2.87;;;1.10;;
27145;SDS011;17980;51.744;7.190;2023-04-19T10:33:30;1.40;;;1.30;;
27145;SDS011;17980;51.744;7.190;2023-04-19T10:35:59;3.83;;;1.03;;
27145;SDS011;17980;51.744;7.190;2023-04-19T10:38:37;5.40;;;1.00;;
27145;SDS011;17980;51.744;7.190;2023-04-19T10:41:06;4.07;;;1.00;;
27145;SDS011;17980;51.744;7.190;2023-04-19T10:43:43;2.57;;;1.10;;
27145;SDS011;17980;51.744;7.190;2023-04-19T10:48:52;4.07;;;1.00;;
27145;SDS011;17980;51.744;7.190;2023-04-19T10:53:58;2.17;;;1.07;;
27145;SDS011;17980;51.744;7.190;2023-04-19T10:59:44;3.73;;;0.97;;
27145;SDS011;17980;51.744;7.190;2023-04-19T11:02:28;2.40;;;0.90;;
27145;SDS011;17980;51.744;7.190;2023-04-19T11:05:05;2.67;;;1.00;;
27145;SDS011;17980;51.744;7.190;2023-04-19T11:07:39;2.87;;;1.10;;
27145;SDS011;17980;51.744;7.190;2023-04-19T11:10:08;6.07;;;1.20;;
27145;SDS011;17980;51.744;7.190;2023-04-19T11:12:45;1.20;;;1.00;;
27145;SDS011;17980;51.744;7.190;2023-04-19T11:15:12;3.37;;;0.93;;
27145;SDS011;17980;51.744;7.190;2023-04-19T11:17:39;3.57;;;1.37;;
27145;SDS011;17980;51.744;7.190;2023-04-19T11:20:08;4.00;;;1.17;;
27145;SDS011;17980;51.744;7.190;2023-04-19T11:22:46;3.57;;;1.13;;
27145;SDS011;17980;51.744;7.190;2023-04-19T11:25:14;1.07;;;0.97;;
27145;SDS011;17980;51.744;7.190;2023-04-19T11:27:44;3.70;;;1.00;;
27145;SDS011;17980;51.744;7.190;2023-04-19T11:30:21;3.10;;;1.30;;
27145;SDS011;17980;51.744;7.190;2023-04-19T11:32:55;1.43;;;0.93;;
27145;SDS011;17980;51.744;7.190;2023-04-19T11:35:33;0.93;;;0.87;;
27145;SDS011;17980;51.744;7.190;2023-04-19T11:38:01;1.63;;;1.10;;
27145;SDS011;17980;51.744;7.190;2023-04-19T11:40:38;2.60;;;1.00;;
27145;SDS011;17980;51.744;7.190;2023-04-19T11:43:05;4.90;;;1.23;;
27145;SDS011;17980;51.744;7.190;2023-04-19T11:45:42;3.83;;;1.20;;
27145;SDS011;17980;51.744;7.190;2023-04-19T11:48:12;1.37;;;1.27;;
27145;SDS011;17980;51.744;7.190;2023-04-19T11:50:49;2.30;;;1.60;;
27145;SDS011;17980;51.744;7.190;2023-04-19T11:53:19;2.13;;;1.20;;
27145;SDS011;17980;51.744;7.190;2023-04-19T11:56:04;3.50;;;1.30;;
27145;SDS011;17980;51.744;7.190;2023-04-19T11:58:36;4.00;;;1.63;;
27145;SDS011;17980;51.744;7.190;2023-04-19T12:01:12;2.93;;;1.37;;
27145;SDS011;17980;51.744;7.190;2023-04-19T12:06:21;2.40;;;1.70;;
27145;SDS011;17980;51.744;7.190;2023-04-19T12:08:49;1.60;;;1.37;;
27145;SDS011;17980;51.744;7.190;2023-04-19T12:11:17;2.87;;;1.37;;
27145;SDS011;17980;51.744;7.190;2023-04-19T12:14:07;1.77;;;1.23;;
27145;SDS011;17980;51.744;7.190;2023-04-19T12:16:35;2.87;;;1.33;;
27145;SDS011;17980;51.744;7.190;2023-04-19T12:19:10;3.43;;;1.00;;
27145;SDS011;17980;51.744;7.190;2023-04-19T12:21:47;6.03;;;1.37;;
27145;SDS011;17980;51.744;7.190;2023-04-19T12:24:14;5.93;;;1.47;;
27145;SDS011;17980;51.744;7.190;2023-04-19T12:26:51;3.53;;;1.03;;
27145;SDS011;17980;51.744;7.190;2023-04-19T12:29:20;1.40;;;1.30;;
27145;SDS011;17980;51.744;7.190;2023-04-19T12:31:56;1.83;;;1.17;;
27145;SDS011;17980;51.744;7.190;2023-04-19T12:34:24;2.33;;;1.50;;
27145;SDS011;17980;51.744;7.190;2023-04-19T12:36:51;2.90;;;1.33;;
27145;SDS011;17980;51.744;7.190;2023-04-19T12:39:19;1.90;;;1.27;;
27145;SDS011;17980;51.744;7.190;2023-04-19T12:41:56;1.43;;;1.30;;
27145;SDS011;17980;51.744;7.190;2023-04-19T12:44:23;2.17;;;1.47;;
27145;SDS011;17980;51.744;7.190;2023-04-19T12:49:27;3.43;;;1.30;;
27145;SDS011;17980;51.744;7.190;2023-04-19T12:54:36;1.73;;;1.20;;
27145;SDS011;17980;51.744;7.190;2023-04-19T12:57:03;7.83;;;1.50;;
27145;SDS011;17980;51.744;7.190;2023-04-19T13:02:07;1.43;;;1.27;;
27145;SDS011;17980;51.744;7.190;2023-04-19T13:04:34;2.13;;;0.90;;
27145;SDS011;17980;51.744;7.190;2023-04-19T13:07:01;1.70;;;1.27;;
27145;SDS011;17980;51.744;7.190;2023-04-19T13:09:38;1.90;;;1.30;;
27145;SDS011;17980;51.744;7.190;2023-04-19T13:14:42;1.23;;;1.13;;
27145;SDS011;17980;51.744;7.190;2023-04-19T13:17:11;1.67;;;1.10;;
27145;SDS011;17980;51.744;7.190;2023-04-19T13:19:48;1.97;;;1.37;;
27145;SDS011;17980;51.744;7.190;2023-04-19T13:22:15;2.17;;;1.27;;
27145;SDS011;17980;51.744;7.190;2023-04-19T13:24:58;1.43;;;1.00;;
27145;SDS011;17980;51.744;7.190;2023-04-19T13:27:26;3.23;;;1.33;;
27145;SDS011;17980;51.744;7.190;2023-04-19T13:29:53;4.20;;;1.47;;
27145;SDS011;17980;51.744;7.190;2023-04-19T13:32:30;3.77;;;1.10;;
27145;SDS011;17980;51.744;7.190;2023-04-19T13:37:33;3.93;;;0.90;;
27145;SDS011;17980;51.744;7.190;2023-04-19T13:40:01;1.57;;;1.27;;
27145;SDS011;17980;51.744;7.190;2023-04-19T13:42:38;2.50;;;1.00;;
27145;SDS011;17980;51.744;7.190;2023-04-19T13:45:07;1.70;;;1.00;;
27145;SDS011;17980;51.744;7.190;2023-04-19T13:47:50;3.23;;;1.07;;
27145;SDS011;17980;51.744;7.190;2023-04-19T13:52:54;3.13;;;1.10;;
27145;SDS011;17980;51.744;7.190;2023-04-19T13:55:21;1.37;;;1.00;;
27145;SDS011;17980;51.744;7.190;2023-04-19T13:57:48;2.63;;;0.93;;
27145;SDS011;17980;51.744;7.190;2023-04-19T14:00:17;2.53;;;1.17;;
27145;SDS011;17980;51.744;7.190;2023-04-19T14:02:54;1.90;;;1.00;;
27145;SDS011;17980;51.744;7.190;2023-04-19T14:05:22;2.07;;;1.10;;
27145;SDS011;17980;51.744;7.190;2023-04-19T14:07:49;3.03;;;1.20;;
27145;SDS011;17980;51.744;7.190;2023-04-19T14:10:17;3.67;;;1.50;;
27145;SDS011;17980;51.744;7.190;2023-04-19T14:12:54;1.47;;;1.20;;
27145;SDS011;17980;51.744;7.190;2023-04-19T14:15:21;4.87;;;1.30;;
27145;SDS011;17980;51.744;7.190;2023-04-19T14:17:50;2.50;;;1.20;;
27145;SDS011;17980;51.744;7.190;2023-04-19T14:20:27;1.70;;;1.07;;
27145;SDS011;17980;51.744;7.190;2023-04-19T14:22:54;5.10;;;1.40;;
27145;SDS011;17980;51.744;7.190;2023-04-19T14:27:59;1.40;;;1.03;;
27145;SDS011;17980;51.744;7.190;2023-04-19T14:30:27;2.30;;;0.80;;
27145;SDS011;17980;51.744;7.190;2023-04-19T14:33:03;2.60;;;0.90;;
27145;SDS011;17980;51.744;7.190;2023-04-19T14:35:31;7.60;;;0.97;;
27145;SDS011;17980;51.744;7.190;2023-04-19T14:37:58;4.37;;;1.13;;
27145;SDS011;17980;51.744;7.190;2023-04-19T14:40:25;11.13;;;1.00;;
27145;SDS011;17980;51.744;7.190;2023-04-19T14:43:10;3.33;;;0.73;;
27145;SDS011;17980;51.744;7.190;2023-04-19T14:45:39;1.13;;;0.70;;
27145;SDS011;17980;51.744;7.190;2023-04-19T14:48:06;3.93;;;1.33;;
27145;SDS011;17980;51.744;7.190;2023-04-19T14:50:33;1.63;;;0.97;;
27145;SDS011;17980;51.744;7.190;2023-04-19T14:53:10;5.93;;;1.07;;
27145;SDS011;17980;51.744;7.190;2023-04-19T14:55:38;0.93;;;0.70;;
27145;SDS011;17980;51.744;7.190;2023-04-19T14:58:05;7.03;;;0.87;;
27145;SDS011;17980;51.744;7.190;2023-04-19T15:00:42;1.33;;;0.70;;
27145;SDS011;17980;51.744;7.190;2023-04-19T15:03:10;1.73;;;0.70;;
27145;SDS011;17980;51.744;7.190;2023-04-19T15:05:47;1.80;;;0.90;;
27145;SDS011;17980;51.744;7.190;2023-04-19T15:08:14;3.10;;;1.00;;
27145;SDS011;17980;51.744;7.190;2023-04-19T15:10:41;1.63;;;0.77;;
27145;SDS011;17980;51.744;7.190;2023-04-19T15:13:24;2.20;;;0.60;;
27145;SDS011;17980;51.744;7.190;2023-04-19T15:15:52;3.10;;;0.60;;
27145;SDS011;17980;51.744;7.190;2023-04-19T15:18:19;1.20;;;0.80;;
27145;SDS011;17980;51.744;7.190;2023-04-19T15:20:46;4.10;;;0.70;;
27145;SDS011;17980;51.744;7.190;2023-04-19T15:23:23;1.33;;;0.90;;
27145;SDS011;17980;51.744;7.190;2023-04-19T15:25:51;3.67;;;0.80;;
27145;SDS011;17980;51.744;7.190;2023-04-19T15:28:18;2.13;;;0.70;;
27145;SDS011;17980;51.744;7.190;2023-04-19T15:30:46;1.33;;;0.70;;
27145;SDS011;17980;51.744;7.190;2023-04-19T15:33:25;1.70;;;0.87;;
27145;SDS011;17980;51.744;7.190;2023-04-19T15:35:53;5.47;;;1.20;;
27145;SDS011;17980;51.744;7.190;2023-04-19T15:38:22;2.53;;;0.60;;
27145;SDS011;17980;51.744;7.190;2023-04-19T15:41:00;1.23;;;0.67;;
27145;SDS011;17980;51.744;7.190;2023-04-19T15:43:28;4.13;;;1.20;;
27145;SDS011;17980;51.744;7.190;2023-04-19T15:46:05;1.90;;;0.80;;
27145;SDS011;17980;51.744;7.190;2023-04-19T15:48:35;1.27;;;0.90;;